sensor_id;sensor_type;location;lat;lon;timestamp;pressure;altitude;pressure_sealevel;temperature;humidity
80682;BME280;70045;40.200;44.582;2023-06-14T00:01:39;85810.22;;;19.43;38.79
80682;BME280;70045;40.200;44.582;2023-06-14T00:04:04;85814.00;;;19.42;38.87
80682;BME280;70045;40.200;44.582;2023-06-14T00:06:30;85804.22;;;19.42;38.90
80682;BME280;70045;40.200;44.582;2023-06-14T00:08:55;85808.09;;;19.47;38.76
80682;BME280;70045;40.200;44.582;2023-06-14T00:11:24;85801.44;;;19.51;38.64
80682;BME280;70045;40.200;44.582;2023-06-14T00:13:49;85792.13;;;19.56;38.52
80682;BME280;70045;40.200;44.582;2023-06-14T00:16:15;85786.94;;;19.67;38.39
80682;BME280;70045;40.200;44.582;2023-06-14T00:18:40;85787.50;;;19.77;37.74
80682;BME280;70045;40.200;44.582;2023-06-14T00:21:05;85788.50;;;19.80;37.86
80682;BME280;70045;40.200;44.582;2023-06-14T00:23:33;85788.50;;;19.80;37.84
80682;BME280;70045;40.200;44.582;2023-06-14T00:25:59;85794.69;;;19.77;38.42
80682;BME280;70045;40.200;44.582;2023-06-14T00:28:24;85788.50;;;19.80;38.45
80682;BME280;70045;40.200;44.582;2023-06-14T00:30:49;85770.50;;;19.72;38.42
80682;BME280;70045;40.200;44.582;2023-06-14T00:33:15;85782.78;;;19.87;38.24
80682;BME280;70045;40.200;44.582;2023-06-14T00:35:43;85768.63;;;19.79;38.22
80682;BME280;70045;40.200;44.582;2023-06-14T00:38:08;85768.47;;;19.88;38.30
80682;BME280;70045;40.200;44.582;2023-06-14T00:40:34;85769.22;;;20.00;37.99
80682;BME280;70045;40.200;44.582;2023-06-14T00:43:00;85765.94;;;20.10;38.18
80682;BME280;70045;40.200;44.582;2023-06-14T00:45:25;85767.19;;;20.21;37.86
80682;BME280;70045;40.200;44.582;2023-06-14T00:47:54;85764.34;;;20.30;37.15
80682;BME280;70045;40.200;44.582;2023-06-14T00:50:20;85775.81;;;20.32;37.81
80682;BME280;70045;40.200;44.582;2023-06-14T00:52:46;85787.03;;;20.27;37.84
80682;BME280;70045;40.200;44.582;2023-06-14T00:55:11;85801.13;;;20.19;38.33
80682;BME280;70045;40.200;44.582;2023-06-14T00:57:37;85807.75;;;20.08;38.49
80682;BME280;70045;40.200;44.582;2023-06-14T01:00:05;85820.22;;;20.08;39.00
80682;BME280;70045;40.200;44.582;2023-06-14T01:02:31;85824.28;;;20.03;38.97
80682;BME280;70045;40.200;44.582;2023-06-14T01:04:56;85840.53;;;20.02;39.06
80682;BME280;70045;40.200;44.582;2023-06-14T01:07:36;85819.88;;;19.89;39.13
80682;BME280;70045;40.200;44.582;2023-06-14T01:10:40;85841.97;;;20.08;39.74
80682;BME280;70045;40.200;44.582;2023-06-14T01:13:27;85829.78;;;20.05;40.42
80682;BME280;70045;40.200;44.582;2023-06-14T01:15:54;85827.59;;;19.98;40.48
80682;BME280;70045;40.200;44.582;2023-06-14T01:18:21;85818.69;;;19.90;41.49
80682;BME280;70045;40.200;44.582;2023-06-14T01:20:50;85806.09;;;19.73;41.97
80682;BME280;70045;40.200;44.582;2023-06-14T01:23:24;85808.44;;;19.60;44.46
80682;BME280;70045;40.200;44.582;2023-06-14T01:25:50;85818.13;;;19.48;42.16
80682;BME280;70045;40.200;44.582;2023-06-14T01:28:16;85831.63;;;19.35;45.16
80682;BME280;70045;40.200;44.582;2023-06-14T01:30:43;85844.75;;;19.30;43.37
80682;BME280;70045;40.200;44.582;2023-06-14T01:33:13;85846.81;;;19.20;44.00
80682;BME280;70045;40.200;44.582;2023-06-14T01:35:44;85852.38;;;19.02;45.12
80682;BME280;70045;40.200;44.582;2023-06-14T01:38:10;85848.75;;;18.99;44.05
80682;BME280;70045;40.200;44.582;2023-06-14T01:40:38;85850.91;;;19.00;44.15
80682;BME280;70045;40.200;44.582;2023-06-14T01:43:05;85847.38;;;19.04;43.98
80682;BME280;70045;40.200;44.582;2023-06-14T01:45:34;85847.22;;;19.13;44.11
80682;BME280;70045;40.200;44.582;2023-06-14T01:48:01;85836.31;;;19.20;43.32
80682;BME280;70045;40.200;44.582;2023-06-14T01:50:30;85840.16;;;19.25;43.18
80682;BME280;70045;40.200;44.582;2023-06-14T01:52:56;85829.22;;;19.32;43.20
80682;BME280;70045;40.200;44.582;2023-06-14T01:55:21;85842.03;;;19.50;42.59
80682;BME280;70045;40.200;44.582;2023-06-14T01:57:51;85840.72;;;19.66;41.64
80682;BME280;70045;40.200;44.582;2023-06-14T02:00:16;85836.06;;;19.82;41.67
80682;BME280;70045;40.200;44.582;2023-06-14T02:02:42;85836.09;;;19.87;40.62
80682;BME280;70045;40.200;44.582;2023-06-14T02:05:07;85828.50;;;19.89;40.42
80682;BME280;70045;40.200;44.582;2023-06-14T02:07:33;85833.00;;;19.89;40.16
80682;BME280;70045;40.200;44.582;2023-06-14T02:10:01;85819.63;;;19.87;39.83
80682;BME280;70045;40.200;44.582;2023-06-14T02:12:27;85818.94;;;19.92;39.79
80682;BME280;70045;40.200;44.582;2023-06-14T02:14:52;85826.38;;;19.99;39.92
80682;BME280;70045;40.200;44.582;2023-06-14T02:17:17;85840.09;;;20.09;39.84
80682;BME280;70045;40.200;44.582;2023-06-14T02:19:43;85845.41;;;20.20;40.28
80682;BME280;70045;40.200;44.582;2023-06-14T02:22:11;85837.56;;;20.26;40.36
80682;BME280;70045;40.200;44.582;2023-06-14T02:24:36;85831.31;;;20.29;40.34
80682;BME280;70045;40.200;44.582;2023-06-14T02:27:02;85835.16;;;20.28;40.70
80682;BME280;70045;40.200;44.582;2023-06-14T02:29:27;85861.72;;;20.30;41.17
80682;BME280;70045;40.200;44.582;2023-06-14T02:31:53;85864.59;;;20.32;41.08
80682;BME280;70045;40.200;44.582;2023-06-14T02:34:21;85873.44;;;20.29;41.79
80682;BME280;70045;40.200;44.582;2023-06-14T02:36:46;85874.09;;;20.18;42.20
80682;BME280;70045;40.200;44.582;2023-06-14T02:39:12;85857.69;;;19.91;42.30
80682;BME280;70045;40.200;44.582;2023-06-14T02:41:37;85855.41;;;19.79;42.80
80682;BME280;70045;40.200;44.582;2023-06-14T02:44:03;85852.94;;;19.69;43.38
80682;BME280;70045;40.200;44.582;2023-06-14T02:46:32;85857.91;;;19.62;43.08
80682;BME280;70045;40.200;44.582;2023-06-14T02:48:57;85857.44;;;19.63;42.24
80682;BME280;70045;40.200;44.582;2023-06-14T02:51:23;85856.47;;;19.61;42.36
80682;BME280;70045;40.200;44.582;2023-06-14T02:53:48;85854.72;;;19.78;42.60
80682;BME280;70045;40.200;44.582;2023-06-14T02:56:13;85850.25;;;19.90;43.55
80682;BME280;70045;40.200;44.582;2023-06-14T02:58:42;85864.56;;;19.83;43.46
80682;BME280;70045;40.200;44.582;2023-06-14T03:01:07;85861.09;;;19.71;44.11
80682;BME280;70045;40.200;44.582;2023-06-14T03:03:33;85812.66;;;19.52;44.45
80682;BME280;70045;40.200;44.582;2023-06-14T03:05:58;85813.41;;;19.58;43.61
80682;BME280;70045;40.200;44.582;2023-06-14T03:08:24;85818.41;;;19.56;43.32
80682;BME280;70045;40.200;44.582;2023-06-14T03:10:52;85824.63;;;19.27;42.99
80682;BME280;70045;40.200;44.582;2023-06-14T03:13:17;85833.19;;;19.22;43.39
80682;BME280;70045;40.200;44.582;2023-06-14T03:15:43;85851.19;;;19.03;43.13
80682;BME280;70045;40.200;44.582;2023-06-14T03:18:09;85859.22;;;18.93;43.04
80682;BME280;70045;40.200;44.582;2023-06-14T03:20:35;85827.50;;;18.76;42.90
80682;BME280;70045;40.200;44.582;2023-06-14T03:23:03;85854.38;;;18.86;42.28
80682;BME280;70045;40.200;44.582;2023-06-14T03:25:28;85866.16;;;18.96;43.25
80682;BME280;70045;40.200;44.582;2023-06-14T03:27:54;85874.97;;;18.93;45.08
80682;BME280;70045;40.200;44.582;2023-06-14T03:30:19;85883.75;;;18.90;44.85
80682;BME280;70045;40.200;44.582;2023-06-14T03:32:45;85878.50;;;18.90;43.93
80682;BME280;70045;40.200;44.582;2023-06-14T03:35:13;85874.00;;;18.91;45.86
80682;BME280;70045;40.200;44.582;2023-06-14T03:37:38;85882.72;;;19.03;46.48
80682;BME280;70045;40.200;44.582;2023-06-14T03:40:04;85883.59;;;19.20;44.13
80682;BME280;70045;40.200;44.582;2023-06-14T03:42:29;85888.28;;;19.36;43.81
80682;BME280;70045;40.200;44.582;2023-06-14T03:44:55;85868.34;;;19.50;44.57
80682;BME280;70045;40.200;44.582;2023-06-14T03:47:23;85859.34;;;19.63;45.68
80682;BME280;70045;40.200;44.582;2023-06-14T03:49:48;85867.28;;;19.68;43.84
80682;BME280;70045;40.200;44.582;2023-06-14T03:52:14;85860.19;;;19.74;45.12
80682;BME280;70045;40.200;44.582;2023-06-14T03:54:39;85862.75;;;19.69;45.23
80682;BME280;70045;40.200;44.582;2023-06-14T03:57:05;85859.72;;;19.50;45.37
80682;BME280;70045;40.200;44.582;2023-06-14T03:59:33;85859.06;;;19.55;46.29
80682;BME280;70045;40.200;44.582;2023-06-14T04:01:58;85844.47;;;19.54;45.97
80682;BME280;70045;40.200;44.582;2023-06-14T04:04:23;85854.22;;;19.48;45.20
80682;BME280;70045;40.200;44.582;2023-06-14T04:06:49;85859.72;;;19.50;45.55
80682;BME280;70045;40.200;44.582;2023-06-14T04:09:14;85867.84;;;19.46;44.89
80682;BME280;70045;40.200;44.582;2023-06-14T04:11:42;85876.06;;;19.33;46.20
80682;BME280;70045;40.200;44.582;2023-06-14T04:14:08;85890.13;;;19.30;46.13
80682;BME280;70045;40.200;44.582;2023-06-14T04:16:33;85894.16;;;19.26;46.72
80682;BME280;70045;40.200;44.582;2023-06-14T04:18:59;85884.53;;;19.17;46.55
80682;BME280;70045;40.200;44.582;2023-06-14T04:21:24;85909.59;;;19.18;46.75
80682;BME280;70045;40.200;44.582;2023-06-14T04:23:52;85917.94;;;19.16;46.73
80682;BME280;70045;40.200;44.582;2023-06-14T04:26:18;85938.41;;;19.07;46.69
80682;BME280;70045;40.200;44.582;2023-06-14T04:28:43;85948.50;;;18.93;46.09
80682;BME280;70045;40.200;44.582;2023-06-14T04:31:08;85967.28;;;18.86;46.91
80682;BME280;70045;40.200;44.582;2023-06-14T04:33:37;85972.03;;;18.67;48.98
80682;BME280;70045;40.200;44.582;2023-06-14T04:36:05;85967.84;;;18.40;51.95
80682;BME280;70045;40.200;44.582;2023-06-14T04:38:30;85962.09;;;18.36;51.15
80682;BME280;70045;40.200;44.582;2023-06-14T04:40:56;85959.47;;;18.36;51.92
80682;BME280;70045;40.200;44.582;2023-06-14T04:43:21;85992.06;;;18.29;54.47
80682;BME280;70045;40.200;44.582;2023-06-14T04:45:46;86017.94;;;18.21;54.29
80682;BME280;70045;40.200;44.582;2023-06-14T04:48:15;86027.72;;;18.06;56.69
80682;BME280;70045;40.200;44.582;2023-06-14T04:50:40;86030.91;;;17.95;55.87
80682;BME280;70045;40.200;44.582;2023-06-14T04:53:05;86019.00;;;17.70;56.73
80682;BME280;70045;40.200;44.582;2023-06-14T04:55:31;86009.22;;;17.56;56.91
80682;BME280;70045;40.200;44.582;2023-06-14T04:57:56;86010.88;;;17.68;55.12
80682;BME280;70045;40.200;44.582;2023-06-14T05:00:24;86046.41;;;17.84;57.27
80682;BME280;70045;40.200;44.582;2023-06-14T05:02:50;86080.34;;;17.87;56.69
80682;BME280;70045;40.200;44.582;2023-06-14T05:05:15;86110.91;;;17.91;56.54
80682;BME280;70045;40.200;44.582;2023-06-14T05:07:40;86131.66;;;17.79;56.28
80682;BME280;70045;40.200;44.582;2023-06-14T05:10:06;86092.41;;;17.70;56.49
80682;BME280;70045;40.200;44.582;2023-06-14T05:12:34;86117.19;;;17.69;60.57
80682;BME280;70045;40.200;44.582;2023-06-14T05:15:00;86098.50;;;17.52;60.63
80682;BME280;70045;40.200;44.582;2023-06-14T05:17:25;86110.69;;;17.79;57.62
80682;BME280;70045;40.200;44.582;2023-06-14T05:19:50;86108.13;;;17.94;57.79
80682;BME280;70045;40.200;44.582;2023-06-14T05:22:16;86120.88;;;17.86;57.51
80682;BME280;70045;40.200;44.582;2023-06-14T05:24:44;86118.50;;;17.88;57.79
80682;BME280;70045;40.200;44.582;2023-06-14T05:27:09;86135.69;;;17.90;56.83
80682;BME280;70045;40.200;44.582;2023-06-14T05:29:35;86122.09;;;17.76;57.13
80682;BME280;70045;40.200;44.582;2023-06-14T05:32:00;86129.50;;;17.78;57.53
80682;BME280;70045;40.200;44.582;2023-06-14T05:34:26;86134.91;;;17.74;56.71
80682;BME280;70045;40.200;44.582;2023-06-14T05:36:54;86125.88;;;17.75;57.25
80682;BME280;70045;40.200;44.582;2023-06-14T05:39:20;86103.34;;;17.44;56.26
80682;BME280;70045;40.200;44.582;2023-06-14T05:41:45;86091.63;;;17.40;57.81
80682;BME280;70045;40.200;44.582;2023-06-14T05:44:10;86075.88;;;17.40;57.85
80682;BME280;70045;40.200;44.582;2023-06-14T05:46:36;86047.91;;;17.61;58.57
80682;BME280;70045;40.200;44.582;2023-06-14T05:49:05;86039.59;;;17.62;60.93
80682;BME280;70045;40.200;44.582;2023-06-14T05:51:31;86029.78;;;17.33;61.34
80682;BME280;70045;40.200;44.582;2023-06-14T05:53:56;86029.53;;;17.07;64.06
80682;BME280;70045;40.200;44.582;2023-06-14T05:56:22;86051.88;;;16.93;63.43
80682;BME280;70045;40.200;44.582;2023-06-14T05:58:47;86072.84;;;16.93;63.41
80682;BME280;70045;40.200;44.582;2023-06-14T06:01:15;86069.94;;;16.91;62.99
80682;BME280;70045;40.200;44.582;2023-06-14T06:03:41;86052.28;;;16.67;63.24
80682;BME280;70045;40.200;44.582;2023-06-14T06:06:07;86045.09;;;16.44;64.30
80682;BME280;70045;40.200;44.582;2023-06-14T06:08:33;86039.25;;;16.58;63.61
80682;BME280;70045;40.200;44.582;2023-06-14T06:10:58;86018.13;;;16.37;64.68
80682;BME280;70045;40.200;44.582;2023-06-14T06:13:26;86014.44;;;16.44;65.47
80682;BME280;70045;40.200;44.582;2023-06-14T06:15:52;86042.75;;;16.55;65.13
80682;BME280;70045;40.200;44.582;2023-06-14T06:18:17;86042.78;;;16.46;65.12
80682;BME280;70045;40.200;44.582;2023-06-14T06:20:42;86036.31;;;16.56;64.45
80682;BME280;70045;40.200;44.582;2023-06-14T06:23:08;86045.75;;;16.63;65.44
80682;BME280;70045;40.200;44.582;2023-06-14T06:25:37;86036.25;;;16.41;66.02
80682;BME280;70045;40.200;44.582;2023-06-14T06:28:02;86042.53;;;16.34;65.53
80682;BME280;70045;40.200;44.582;2023-06-14T06:30:28;86035.84;;;16.33;65.55
80682;BME280;70045;40.200;44.582;2023-06-14T06:32:53;86031.59;;;16.45;65.54
80682;BME280;70045;40.200;44.582;2023-06-14T06:35:19;86022.41;;;16.50;65.01
80682;BME280;70045;40.200;44.582;2023-06-14T06:37:48;86017.56;;;16.57;64.04
80682;BME280;70045;40.200;44.582;2023-06-14T06:40:14;86013.69;;;16.53;62.90
80682;BME280;70045;40.200;44.582;2023-06-14T06:42:39;86009.44;;;16.55;63.03
80682;BME280;70045;40.200;44.582;2023-06-14T06:45:05;85995.31;;;16.62;63.22
80682;BME280;70045;40.200;44.582;2023-06-14T06:47:30;85992.28;;;16.79;62.60
80682;BME280;70045;40.200;44.582;2023-06-14T06:49:59;85983.19;;;16.98;61.94
80682;BME280;70045;40.200;44.582;2023-06-14T06:52:24;86003.94;;;17.26;60.37
80682;BME280;70045;40.200;44.582;2023-06-14T06:54:49;86004.63;;;17.50;59.20
80682;BME280;70045;40.200;44.582;2023-06-14T06:57:15;85998.84;;;17.76;57.10
80682;BME280;70045;40.200;44.582;2023-06-14T06:59:40;85999.78;;;18.03;56.80
80682;BME280;70045;40.200;44.582;2023-06-14T07:02:08;85990.81;;;18.24;56.49
80682;BME280;70045;40.200;44.582;2023-06-14T07:04:34;85984.09;;;18.59;55.85
80682;BME280;70045;40.200;44.582;2023-06-14T07:06:59;85979.06;;;18.91;55.88
80682;BME280;70045;40.200;44.582;2023-06-14T07:09:24;85983.38;;;19.35;54.93
80682;BME280;70045;40.200;44.582;2023-06-14T07:11:50;85988.25;;;19.68;53.74
80682;BME280;70045;40.200;44.582;2023-06-14T07:14:18;85983.94;;;20.18;51.01
80682;BME280;70045;40.200;44.582;2023-06-14T07:16:44;85978.31;;;20.68;49.19
80682;BME280;70045;40.200;44.582;2023-06-14T07:19:09;85977.78;;;21.07;47.74
80682;BME280;70045;40.200;44.582;2023-06-14T07:21:35;85980.97;;;21.22;46.52
80682;BME280;70045;40.200;44.582;2023-06-14T07:24:00;85981.97;;;21.36;45.24
80682;BME280;70045;40.200;44.582;2023-06-14T07:26:28;85987.00;;;21.29;44.59
80682;BME280;70045;40.200;44.582;2023-06-14T07:28:54;85985.50;;;21.16;45.08
80682;BME280;70045;40.200;44.582;2023-06-14T07:31:19;85977.28;;;20.97;45.85
80682;BME280;70045;40.200;44.582;2023-06-14T07:33:45;85989.44;;;20.89;44.19
80682;BME280;70045;40.200;44.582;2023-06-14T07:36:10;85998.97;;;20.81;43.46
80682;BME280;70045;40.200;44.582;2023-06-14T07:38:39;86010.59;;;20.63;44.16
80682;BME280;70045;40.200;44.582;2023-06-14T07:41:04;86001.09;;;20.45;44.05
80682;BME280;70045;40.200;44.582;2023-06-14T07:43:30;85982.34;;;20.31;44.51
80682;BME280;70045;40.200;44.582;2023-06-14T07:45:55;85960.69;;;20.16;43.75
80682;BME280;70045;40.200;44.582;2023-06-14T07:48:21;85941.72;;;20.06;44.58
80682;BME280;70045;40.200;44.582;2023-06-14T07:50:49;85940.03;;;20.03;44.22
80682;BME280;70045;40.200;44.582;2023-06-14T07:53:14;85939.75;;;20.01;45.03
80682;BME280;70045;40.200;44.582;2023-06-14T07:55:39;85946.72;;;20.04;45.28
80682;BME280;70045;40.200;44.582;2023-06-14T07:58:06;85948.34;;;19.96;44.71
80682;BME280;70045;40.200;44.582;2023-06-14T08:00:32;85942.34;;;19.96;44.39
80682;BME280;70045;40.200;44.582;2023-06-14T08:03:00;85930.69;;;20.02;44.20
80682;BME280;70045;40.200;44.582;2023-06-14T08:05:26;85921.63;;;20.03;42.66
80682;BME280;70045;40.200;44.582;2023-06-14T08:07:51;85916.69;;;20.17;42.86
80682;BME280;70045;40.200;44.582;2023-06-14T08:10:17;85916.56;;;20.37;43.28
80682;BME280;70045;40.200;44.582;2023-06-14T08:12:43;85908.75;;;20.48;43.41
80682;BME280;70045;40.200;44.582;2023-06-14T08:15:11;85907.84;;;20.57;42.85
80682;BME280;70045;40.200;44.582;2023-06-14T08:17:37;85925.88;;;20.70;43.27
80682;BME280;70045;40.200;44.582;2023-06-14T08:20:03;85911.44;;;20.60;44.65
80682;BME280;70045;40.200;44.582;2023-06-14T08:22:28;85928.75;;;20.72;44.30
80682;BME280;70045;40.200;44.582;2023-06-14T08:24:54;85919.78;;;20.96;43.92
80682;BME280;70045;40.200;44.582;2023-06-14T08:27:22;85914.03;;;21.03;44.05
80682;BME280;70045;40.200;44.582;2023-06-14T08:29:47;85910.47;;;21.12;44.28
80682;BME280;70045;40.200;44.582;2023-06-14T08:32:13;85914.41;;;21.39;43.68
80682;BME280;70045;40.200;44.582;2023-06-14T08:34:38;85919.03;;;21.78;42.91
80682;BME280;70045;40.200;44.582;2023-06-14T08:37:04;85917.63;;;22.11;42.62
80682;BME280;70045;40.200;44.582;2023-06-14T08:39:32;85896.97;;;22.26;40.72
80682;BME280;70045;40.200;44.582;2023-06-14T08:41:58;85905.13;;;22.34;39.87
80682;BME280;70045;40.200;44.582;2023-06-14T08:44:23;85905.13;;;22.45;39.74
80682;BME280;70045;40.200;44.582;2023-06-14T08:46:50;85901.28;;;22.46;38.88
80682;BME280;70045;40.200;44.582;2023-06-14T08:49:16;85899.78;;;22.85;39.21
80682;BME280;70045;40.200;44.582;2023-06-14T08:51:45;85905.50;;;23.06;36.19
80682;BME280;70045;40.200;44.582;2023-06-14T08:54:12;85889.06;;;23.30;35.52
80682;BME280;70045;40.200;44.582;2023-06-14T08:56:38;85900.50;;;23.49;35.54
80682;BME280;70045;40.200;44.582;2023-06-14T08:59:05;85902.84;;;23.59;33.27
80682;BME280;70045;40.200;44.582;2023-06-14T09:01:34;85895.44;;;23.93;34.75
80682;BME280;70045;40.200;44.582;2023-06-14T09:04:03;85911.44;;;24.12;32.09
80682;BME280;70045;40.200;44.582;2023-06-14T09:06:29;85900.34;;;24.44;32.93
80682;BME280;70045;40.200;44.582;2023-06-14T09:08:55;85897.41;;;24.78;33.01
80682;BME280;70045;40.200;44.582;2023-06-14T09:11:21;85895.88;;;24.88;32.38
80682;BME280;70045;40.200;44.582;2023-06-14T09:13:47;85897.06;;;25.36;32.24
80682;BME280;70045;40.200;44.582;2023-06-14T09:16:15;85880.56;;;26.01;29.57
80682;BME280;70045;40.200;44.582;2023-06-14T09:18:46;85875.16;;;26.39;29.63
80682;BME280;70045;40.200;44.582;2023-06-14T09:21:11;85887.97;;;27.39;27.67
80682;BME280;70045;40.200;44.582;2023-06-14T09:23:42;85889.78;;;28.06;27.69
80682;BME280;70045;40.200;44.582;2023-06-14T09:26:15;85891.06;;;28.89;25.07
80682;BME280;70045;40.200;44.582;2023-06-14T09:28:49;85885.84;;;29.33;23.86
80682;BME280;70045;40.200;44.582;2023-06-14T09:31:17;85885.88;;;29.41;21.83
80682;BME280;70045;40.200;44.582;2023-06-14T09:33:47;85900.16;;;29.80;21.25
80682;BME280;70045;40.200;44.582;2023-06-14T09:36:23;85893.78;;;29.91;21.86
80682;BME280;70045;40.200;44.582;2023-06-14T09:38:58;85896.53;;;30.14;22.44
80682;BME280;70045;40.200;44.582;2023-06-14T09:41:40;85889.13;;;29.83;22.32
80682;BME280;70045;40.200;44.582;2023-06-14T09:44:07;85897.09;;;29.39;21.83
80682;BME280;70045;40.200;44.582;2023-06-14T09:46:33;85892.09;;;29.15;22.45
80682;BME280;70045;40.200;44.582;2023-06-14T09:49:03;85886.28;;;28.95;21.65
80682;BME280;70045;40.200;44.582;2023-06-14T09:51:29;85886.84;;;28.72;23.49
80682;BME280;70045;40.200;44.582;2023-06-14T09:54:00;85898.69;;;29.14;22.33
80682;BME280;70045;40.200;44.582;2023-06-14T09:56:31;85902.59;;;28.84;21.80
80682;BME280;70045;40.200;44.582;2023-06-14T09:58:59;85859.56;;;28.03;22.71
80682;BME280;70045;40.200;44.582;2023-06-14T10:01:30;85893.38;;;27.60;23.15
80682;BME280;70045;40.200;44.582;2023-06-14T10:04:02;85889.06;;;27.44;24.03
80682;BME280;70045;40.200;44.582;2023-06-14T10:06:29;85889.38;;;27.14;22.93
80682;BME280;70045;40.200;44.582;2023-06-14T10:08:57;85883.84;;;26.98;23.22
80682;BME280;70045;40.200;44.582;2023-06-14T10:11:23;85878.03;;;27.40;24.27
80682;BME280;70045;40.200;44.582;2023-06-14T10:13:57;85880.53;;;28.07;21.26
80682;BME280;70045;40.200;44.582;2023-06-14T10:16:24;85872.00;;;28.43;21.24
80682;BME280;70045;40.200;44.582;2023-06-14T10:19:01;85875.06;;;29.46;21.50
80682;BME280;70045;40.200;44.582;2023-06-14T10:21:41;85879.25;;;29.34;20.77
80682;BME280;70045;40.200;44.582;2023-06-14T10:24:15;85868.09;;;28.86;20.66
80682;BME280;70045;40.200;44.582;2023-06-14T10:26:56;85853.84;;;29.41;19.25
80682;BME280;70045;40.200;44.582;2023-06-14T10:29:22;85845.97;;;31.24;20.28
80682;BME280;70045;40.200;44.582;2023-06-14T10:31:50;85852.72;;;32.37;17.86
80682;BME280;70045;40.200;44.582;2023-06-14T10:34:23;85835.56;;;33.50;16.13
80682;BME280;70045;40.200;44.582;2023-06-14T10:39:25;85832.22;;;34.57;17.27
80682;BME280;70045;40.200;44.582;2023-06-14T10:41:56;85826.41;;;34.60;14.34
80682;BME280;70045;40.200;44.582;2023-06-14T10:46:54;85820.59;;;35.87;14.79
80682;BME280;70045;40.200;44.582;2023-06-14T10:49:21;85825.25;;;36.45;14.61
80682;BME280;70045;40.200;44.582;2023-06-14T10:52:02;85832.41;;;36.81;14.73
80682;BME280;70045;40.200;44.582;2023-06-14T10:54:31;85825.66;;;37.33;14.14
80682;BME280;70045;40.200;44.582;2023-06-14T10:56:56;85832.28;;;37.63;14.96
80682;BME280;70045;40.200;44.582;2023-06-14T10:59:21;85831.16;;;37.66;14.98
80682;BME280;70045;40.200;44.582;2023-06-14T11:04:17;85846.28;;;38.03;14.51
80682;BME280;70045;40.200;44.582;2023-06-14T11:06:50;85849.03;;;38.36;13.36
80682;BME280;70045;40.200;44.582;2023-06-14T11:09:34;85846.66;;;38.31;14.62
80682;BME280;70045;40.200;44.582;2023-06-14T11:12:09;85843.41;;;37.89;14.84
80682;BME280;70045;40.200;44.582;2023-06-14T11:14:35;85840.94;;;37.93;15.24
80682;BME280;70045;40.200;44.582;2023-06-14T11:17:03;85827.28;;;37.91;14.91
80682;BME280;70045;40.200;44.582;2023-06-14T11:19:29;85834.38;;;37.96;15.68
80682;BME280;70045;40.200;44.582;2023-06-14T11:21:54;85829.13;;;38.43;14.17
80682;BME280;70045;40.200;44.582;2023-06-14T11:24:20;85831.19;;;38.55;14.32
80682;BME280;70045;40.200;44.582;2023-06-14T11:26:47;85835.91;;;38.21;13.90
80682;BME280;70045;40.200;44.582;2023-06-14T11:29:16;85831.78;;;38.20;13.36
80682;BME280;70045;40.200;44.582;2023-06-14T11:31:44;85826.06;;;37.82;12.84
80682;BME280;70045;40.200;44.582;2023-06-14T11:34:10;85837.31;;;37.36;13.82
80682;BME280;70045;40.200;44.582;2023-06-14T11:36:35;85829.53;;;37.52;14.25
80682;BME280;70045;40.200;44.582;2023-06-14T11:39:06;85818.13;;;37.53;13.83
80682;BME280;70045;40.200;44.582;2023-06-14T11:41:44;85807.81;;;38.04;13.90
80682;BME280;70045;40.200;44.582;2023-06-14T11:44:10;85812.16;;;38.19;14.24
80682;BME280;70045;40.200;44.582;2023-06-14T11:46:36;85804.03;;;38.76;14.28
80682;BME280;70045;40.200;44.582;2023-06-14T11:49:02;85812.56;;;39.06;13.88
80682;BME280;70045;40.200;44.582;2023-06-14T11:51:32;85806.03;;;38.76;11.94
80682;BME280;70045;40.200;44.582;2023-06-14T11:54:02;85807.09;;;38.71;12.13
80682;BME280;70045;40.200;44.582;2023-06-14T11:56:28;85804.78;;;39.12;11.82
80682;BME280;70045;40.200;44.582;2023-06-14T11:58:54;85801.69;;;39.42;12.13
80682;BME280;70045;40.200;44.582;2023-06-14T12:01:19;85806.66;;;39.33;12.33
80682;BME280;70045;40.200;44.582;2023-06-14T12:03:53;85806.59;;;39.81;11.29
80682;BME280;70045;40.200;44.582;2023-06-14T12:06:30;85791.00;;;40.19;10.96
80682;BME280;70045;40.200;44.582;2023-06-14T12:08:56;85802.19;;;39.99;11.86
80682;BME280;70045;40.200;44.582;2023-06-14T12:11:22;85801.38;;;39.97;11.45
80682;BME280;70045;40.200;44.582;2023-06-14T12:13:48;85796.63;;;40.09;11.49
80682;BME280;70045;40.200;44.582;2023-06-14T12:16:14;85797.88;;;40.20;11.24
80682;BME280;70045;40.200;44.582;2023-06-14T12:31:42;85791.75;;;41.80;10.15
80682;BME280;70045;40.200;44.582;2023-06-14T12:34:08;85790.84;;;41.33;10.82
80682;BME280;70045;40.200;44.582;2023-06-14T12:36:33;85791.94;;;40.75;10.43
80682;BME280;70045;40.200;44.582;2023-06-14T12:38:58;85800.72;;;39.72;12.01
80682;BME280;70045;40.200;44.582;2023-06-14T12:41:24;85803.28;;;38.19;12.95
80682;BME280;70045;40.200;44.582;2023-06-14T12:43:52;85803.50;;;36.93;13.40
80682;BME280;70045;40.200;44.582;2023-06-14T12:46:17;85794.75;;;36.73;13.54
80682;BME280;70045;40.200;44.582;2023-06-14T12:48:43;85802.22;;;37.26;12.98
80682;BME280;70045;40.200;44.582;2023-06-14T12:51:08;85798.56;;;37.21;13.85
80682;BME280;70045;40.200;44.582;2023-06-14T12:53:34;85807.88;;;37.30;13.78
80682;BME280;70045;40.200;44.582;2023-06-14T12:56:02;85801.34;;;37.33;14.65
80682;BME280;70045;40.200;44.582;2023-06-14T12:58:27;85801.59;;;36.74;14.66
80682;BME280;70045;40.200;44.582;2023-06-14T13:00:53;85802.16;;;35.54;15.44
80682;BME280;70045;40.200;44.582;2023-06-14T13:03:18;85800.31;;;34.53;16.37
80682;BME280;70045;40.200;44.582;2023-06-14T13:05:44;85794.25;;;33.81;16.76
80682;BME280;70045;40.200;44.582;2023-06-14T13:08:12;85789.88;;;33.15;17.57
80682;BME280;70045;40.200;44.582;2023-06-14T13:10:38;85789.25;;;32.57;17.38